createdAt,value
2024-04-05T00:02:14.125Z,101131.43
2024-04-05T00:04:42.979Z,101133.98
2024-04-05T00:07:12.133Z,101136.91
2024-04-05T00:09:45.410Z,101141.86
2024-04-05T00:12:14.611Z,101146.80
2024-04-05T00:14:42.886Z,101143.17
2024-04-05T00:17:12.118Z,101140.42
2024-04-05T00:19:43.309Z,101138.61
2024-04-05T00:22:11.797Z,101138.69
2024-04-05T00:24:40.364Z,101140.39
2024-04-05T00:27:09.279Z,101141.84
2024-04-05T00:29:37.809Z,101142.75
2024-04-05T00:32:07.024Z,101142.39
2024-04-05T00:34:36.154Z,101138.59
2024-04-05T00:37:04.827Z,101142.11
2024-04-05T00:39:33.327Z,101139.92
2024-04-05T00:42:02.478Z,101142.96
2024-04-05T00:44:31.531Z,101142.65
2024-04-05T00:46:59.850Z,101140.44
2024-04-05T00:49:28.804Z,101142.31
2024-04-05T00:51:57.828Z,101139.03
2024-04-05T00:54:26.498Z,101139.92
2024-04-05T00:56:55.537Z,101137.88
2024-04-05T00:59:25.522Z,101135.34
2024-04-05T01:01:54.107Z,101136.36
2024-04-05T01:04:22.400Z,101132.60
2024-04-05T01:06:52.276Z,101127.39
2024-04-05T01:09:22.079Z,101132.20
2024-04-05T01:11:57.603Z,101132.31
2024-04-05T01:14:27.028Z,101132.08
2024-04-05T01:16:56.209Z,101130.48
2024-04-05T01:19:24.958Z,101130.19
2024-04-05T01:21:53.317Z,101132.11
2024-04-05T01:24:22.054Z,101134.42
2024-04-05T01:26:51.009Z,101134.70
2024-04-05T01:29:19.552Z,101132.86
2024-04-05T01:31:47.954Z,101133.99
2024-04-05T01:34:17.612Z,101135.77
2024-04-05T01:36:46.712Z,101135.17
2024-04-05T01:39:15.422Z,101139.44
2024-04-05T01:41:43.778Z,101142.09
2024-04-05T01:44:13.177Z,101140.77
2024-04-05T01:46:42.861Z,101145.70
2024-04-05T01:49:12.048Z,101146.83
2024-04-05T01:51:41.098Z,101147.13
2024-04-05T01:54:09.640Z,101148.31
2024-04-05T01:56:38.376Z,101150.06
2024-04-05T01:59:06.886Z,101148.73
2024-04-05T02:01:35.387Z,101148.30
2024-04-05T02:04:04.941Z,101148.47
2024-04-05T02:06:33.554Z,101151.63
2024-04-05T02:09:02.795Z,101153.88
2024-04-05T02:11:31.452Z,101156.95
2024-04-05T02:14:00.442Z,101152.06
2024-04-05T02:16:29.410Z,101153.16
2024-04-05T02:18:57.772Z,101154.56
2024-04-05T02:21:26.112Z,101156.34
2024-04-05T02:23:54.532Z,101158.61
2024-04-05T02:26:23.746Z,101156.59
2024-04-05T02:28:52.205Z,101156.26
2024-04-05T02:31:20.418Z,101159.45
2024-04-05T02:33:49.054Z,101160.31
2024-04-05T02:36:18.272Z,101162.05
2024-04-05T02:38:47.540Z,101165.98
2024-04-05T02:41:17.065Z,101169.77
2024-04-05T02:43:46.294Z,101169.83
2024-04-05T02:46:14.739Z,101176.34
2024-04-05T02:48:43.183Z,101178.95
2024-04-05T02:51:11.906Z,101179.25
2024-04-05T02:53:41.119Z,101179.41
2024-04-05T02:56:12.283Z,101180.42
2024-04-05T02:58:40.948Z,101181.49
2024-04-05T03:01:09.734Z,101180.55
2024-04-05T03:03:38.118Z,101180.20
2024-04-05T03:06:06.457Z,101182.59
2024-04-05T03:08:35.367Z,101184.48
2024-04-05T03:11:04.152Z,101185.48
2024-04-05T03:13:33.181Z,101189.61
2024-04-05T03:16:02.629Z,101189.42
2024-04-05T03:18:33.063Z,101191.16
2024-04-05T03:21:01.542Z,101196.89
2024-04-05T03:23:30.558Z,101203.09
2024-04-05T03:25:59.306Z,101209.98
2024-04-05T03:28:28.291Z,101210.56
2024-04-05T03:30:57.516Z,101212.17
2024-04-05T03:33:26.608Z,101212.02
2024-04-05T03:35:55.008Z,101213.47
2024-04-05T03:38:24.460Z,101212.73
2024-04-05T03:40:53.623Z,101213.18
2024-04-05T03:43:22.864Z,101218.71
2024-04-05T03:45:51.276Z,101219.58
2024-04-05T03:48:20.172Z,101221.64
2024-04-05T03:50:48.721Z,101223.55
2024-04-05T03:53:17.279Z,101223.45
2024-04-05T03:55:45.522Z,101226.70
2024-04-05T03:58:14.970Z,101231.61
2024-04-05T04:00:50.572Z,101235.55
2024-04-05T04:03:19.817Z,101236.49
2024-04-05T04:05:48.964Z,101238.81
2024-04-05T04:08:17.656Z,101241.45
2024-04-05T04:10:46.244Z,101245.70
2024-04-05T04:13:15.702Z,101248.43
2024-04-05T04:15:45.033Z,101250.72
2024-04-05T04:18:13.841Z,101255.55
2024-04-05T04:20:42.976Z,101257.31
2024-04-05T04:23:11.822Z,101257.48
2024-04-05T04:25:41.255Z,101261.13
2024-04-05T04:28:11.391Z,101263.64
2024-04-05T04:30:40.490Z,101263.58
2024-04-05T04:33:12.089Z,101265.10
2024-04-05T04:35:44.574Z,101267.05
2024-04-05T04:38:13.180Z,101263.90
2024-04-05T04:40:42.978Z,101266.95
2024-04-05T04:43:11.452Z,101266.19
2024-04-05T04:45:39.790Z,101266.60
2024-04-05T04:48:08.603Z,101267.16
2024-04-05T04:50:37.337Z,101270.60
2024-04-05T04:53:05.947Z,101270.13
2024-04-05T04:55:36.751Z,101269.59
2024-04-05T04:58:06.607Z,101272.33
2024-04-05T05:00:35.456Z,101275.88
2024-04-05T05:03:03.866Z,101279.34
2024-04-05T05:05:32.619Z,101278.83
2024-04-05T05:08:01.146Z,101279.06
2024-04-05T05:10:30.147Z,101275.73
2024-04-05T05:13:00.333Z,101277.23
2024-04-05T05:15:28.490Z,101278.13
2024-04-05T05:17:56.730Z,101279.81
2024-04-05T05:20:27.855Z,101279.18
2024-04-05T05:22:57.341Z,101284.60
2024-04-05T05:25:25.683Z,101288.34
2024-04-05T05:27:54.200Z,101289.34
2024-04-05T05:30:23.547Z,101288.78
2024-04-05T05:32:54.709Z,101292.77
2024-04-05T05:35:23.914Z,101294.67
2024-04-05T05:37:51.969Z,101297.69
2024-04-05T05:40:19.921Z,101300.35
2024-04-05T05:42:48.987Z,101301.02
2024-04-05T05:45:17.382Z,101305.65
2024-04-05T05:47:46.245Z,101310.91
2024-04-05T05:50:15.174Z,101309.98
2024-04-05T05:52:43.756Z,101315.05
2024-04-05T05:55:12.070Z,101315.07
2024-04-05T05:57:40.393Z,101316.94
2024-04-05T06:00:11.560Z,101313.00
2024-04-05T06:02:40.764Z,101316.54
2024-04-05T06:05:16.031Z,101317.23
2024-04-05T06:07:45.127Z,101318.20
2024-04-05T06:10:20.944Z,101315.49
2024-04-05T06:12:53.202Z,101318.32
2024-04-05T06:15:25.838Z,101322.73
2024-04-05T06:17:56.290Z,101319.52
2024-04-05T06:20:27.089Z,101315.59
2024-04-05T06:22:57.690Z,101313.73
2024-04-05T06:25:25.962Z,101313.56
2024-04-05T06:27:56.497Z,101309.60
2024-04-05T06:30:24.765Z,101314.13
2024-04-05T06:32:53.716Z,101319.50
2024-04-05T06:35:21.960Z,101320.64
2024-04-05T06:37:50.786Z,101323.71
2024-04-05T06:40:18.963Z,101320.41
2024-04-05T06:42:47.448Z,101326.92
2024-04-05T06:45:15.830Z,101330.64
2024-04-05T06:47:44.152Z,101328.15
2024-04-05T06:50:12.439Z,101331.61
2024-04-05T06:52:40.455Z,101332.85
2024-04-05T06:55:09.427Z,101333.98
2024-04-05T06:57:38.732Z,101341.39
2024-04-05T07:00:07.940Z,101340.19
2024-04-05T07:02:36.120Z,101345.50
2024-04-05T07:05:04.594Z,101346.20
2024-04-05T07:07:32.775Z,101349.23
2024-04-05T07:10:00.913Z,101349.66
2024-04-05T07:12:29.433Z,101351.42
2024-04-05T07:14:58.691Z,101350.83
2024-04-05T07:17:27.456Z,101352.31
2024-04-05T07:19:56.309Z,101353.05
2024-04-05T07:22:26.208Z,101354.73
2024-04-05T07:24:55.751Z,101350.75
2024-04-05T07:27:25.628Z,101350.98
2024-04-05T07:29:55.344Z,101354.85
2024-04-05T07:32:26.235Z,101355.02
2024-04-05T07:34:55.465Z,101354.24
2024-04-05T07:37:23.772Z,101355.84
2024-04-05T07:39:52.187Z,101353.86
2024-04-05T07:42:20.812Z,101352.48
2024-04-05T07:44:48.901Z,101352.81
2024-04-05T07:47:17.316Z,101351.85
2024-04-05T07:49:45.587Z,101347.28
2024-04-05T07:52:14.659Z,101347.65
2024-04-05T07:54:46.580Z,101342.93
2024-04-05T07:57:15.093Z,101341.38
2024-04-05T07:59:48.472Z,101342.02
2024-04-05T08:02:17.831Z,101339.08
2024-04-05T08:04:46.282Z,101342.88
2024-04-05T08:07:14.625Z,101340.44
2024-04-05T08:09:44.839Z,101340.58
2024-04-05T08:12:13.679Z,101338.14
2024-04-05T08:14:43.653Z,101340.36
2024-04-05T08:17:13.915Z,101339.14
2024-04-05T08:19:42.841Z,101339.40
2024-04-05T08:22:13.972Z,101335.14
2024-04-05T08:25:08.721Z,101334.50
2024-04-05T08:27:38.045Z,101328.49
2024-04-05T08:30:07.674Z,101330.71
2024-04-05T08:32:44.619Z,101330.90
2024-04-05T08:35:14.858Z,101327.80
2024-04-05T08:37:44.818Z,101328.48
2024-04-05T08:43:18.195Z,101323.02
2024-04-05T08:45:56.918Z,101322.14
2024-04-05T08:48:26.723Z,101322.30
2024-04-05T08:50:55.608Z,101322.55
2024-04-05T08:53:23.697Z,101320.69
2024-04-05T08:55:51.726Z,101323.54
2024-04-05T08:58:19.684Z,101324.86
2024-04-05T09:00:48.567Z,101318.70
2024-04-05T09:03:16.473Z,101313.66
2024-04-05T09:05:46.202Z,101315.70
2024-04-05T09:08:14.961Z,101315.10
2024-04-05T09:10:50.349Z,101314.73
2024-04-05T09:13:18.864Z,101312.05
2024-04-05T09:15:53.406Z,101313.21
2024-04-05T09:18:25.227Z,101310.64
2024-04-05T09:20:53.377Z,101308.67
2024-04-05T09:23:23.471Z,101309.01
2024-04-05T09:26:02.618Z,101303.16
2024-04-05T09:28:30.991Z,101301.73
2024-04-05T09:31:01.112Z,101301.69
2024-04-05T09:33:30.393Z,101300.29
2024-04-05T09:35:59.390Z,101298.16
2024-04-05T09:38:27.368Z,101300.31
2024-04-05T09:40:55.372Z,101298.98
2024-04-05T09:43:23.628Z,101298.43
2024-04-05T09:45:52.851Z,101294.22
2024-04-05T09:48:23.079Z,101295.64
2024-04-05T09:50:52.891Z,101292.02
2024-04-05T09:53:20.890Z,101294.21
2024-04-05T09:55:50.572Z,101294.66
2024-04-05T09:58:19.036Z,101285.60
2024-04-05T10:00:49.426Z,101283.88
2024-04-05T10:03:19.123Z,101282.65
2024-04-05T10:05:50.725Z,101283.80
2024-04-05T10:08:20.215Z,101288.17
2024-04-05T10:10:50.795Z,101287.66
2024-04-05T10:13:25.667Z,101289.30
2024-04-05T10:15:54.492Z,101287.74
2024-04-05T10:18:31.521Z,101293.25
2024-04-05T10:21:04.664Z,101298.88
2024-04-05T10:23:34.397Z,101302.89
2024-04-05T10:26:12.431Z,101304.45
2024-04-05T10:28:41.588Z,101307.92
2024-04-05T10:31:12.652Z,101306.12
2024-04-05T10:33:47.792Z,101305.60
2024-04-05T10:36:16.119Z,101304.38
2024-04-05T10:38:50.459Z,101305.68
2024-04-05T10:41:19.872Z,101299.36
2024-04-05T10:43:48.563Z,101298.92
2024-04-05T10:46:19.112Z,101300.54
2024-04-05T10:48:57.335Z,101299.91
2024-04-05T10:51:26.322Z,101298.64
2024-04-05T10:53:56.745Z,101298.66
2024-04-05T10:56:25.579Z,101299.50
2024-04-05T10:58:55.082Z,101298.48
2024-04-05T11:01:27.342Z,101300.88
2024-04-05T11:03:57.280Z,101299.14
2024-04-05T11:06:26.939Z,101299.48
2024-04-05T11:11:30.094Z,101294.52
2024-04-05T11:14:07.403Z,101294.95
2024-04-05T11:16:41.024Z,101289.70
2024-04-05T11:19:09.869Z,101291.30
2024-04-05T11:21:38.110Z,101286.34
2024-04-05T11:26:50.313Z,101293.64
2024-04-05T11:29:20.539Z,101295.88
2024-04-05T11:31:49.216Z,101291.52
2024-04-05T11:34:18.560Z,101289.73
2024-04-05T11:36:54.545Z,101289.62
2024-04-05T11:39:26.204Z,101284.48
2024-04-05T11:41:56.073Z,101282.52
2024-04-05T11:44:29.043Z,101279.55
2024-04-05T11:46:57.329Z,101280.92
2024-04-05T11:49:26.709Z,101282.00
2024-04-05T11:51:55.433Z,101283.95
2024-04-05T11:54:24.076Z,101282.73
2024-04-05T11:56:52.639Z,101282.30
2024-04-05T11:59:21.657Z,101274.98
2024-04-05T12:01:50.423Z,101275.73
2024-04-05T12:04:22.195Z,101274.91
2024-04-05T12:06:52.513Z,101275.61
2024-04-05T12:09:21.356Z,101279.86
2024-04-05T12:11:50.158Z,101278.52
2024-04-05T12:14:19.930Z,101274.39
2024-04-05T12:16:52.638Z,101272.46
2024-04-05T12:19:20.985Z,101272.11
2024-04-05T12:21:49.686Z,101266.38
2024-04-05T12:24:18.490Z,101263.65
2024-04-05T12:26:47.723Z,101261.95
2024-04-05T12:29:16.345Z,101254.46
2024-04-05T12:31:44.271Z,101255.86
2024-04-05T12:34:12.183Z,101251.05
2024-04-05T12:36:40.755Z,101252.94
2024-04-05T12:39:17.773Z,101246.80
2024-04-05T12:41:45.687Z,101246.19
2024-04-05T12:44:13.819Z,101250.71
2024-04-05T12:46:43.289Z,101247.28
2024-04-05T12:49:18.017Z,101245.52
2024-04-05T12:52:15.086Z,101241.36
2024-04-05T12:57:16.687Z,101242.10
2024-04-05T12:59:44.633Z,101241.42
2024-04-05T13:02:12.683Z,101239.70
2024-04-05T13:04:40.594Z,101239.56
2024-04-05T13:07:08.769Z,101235.89
2024-04-05T13:09:36.741Z,101234.00
2024-04-05T13:12:04.799Z,101235.59
2024-04-05T13:14:32.583Z,101230.98
2024-04-05T13:17:00.928Z,101232.20
2024-04-05T13:19:28.959Z,101232.75
2024-04-05T13:21:56.820Z,101230.89
2024-04-05T13:24:24.772Z,101234.90
2024-04-05T13:26:53.057Z,101230.49
2024-04-05T13:29:21.711Z,101225.92
2024-04-05T13:31:49.690Z,101224.77
2024-04-05T13:34:17.720Z,101223.70
2024-04-05T13:36:48.150Z,101223.77
2024-04-05T13:39:16.156Z,101218.97
2024-04-05T13:41:44.780Z,101219.50
2024-04-05T13:44:12.681Z,101220.61
2024-04-05T13:46:40.527Z,101221.09
2024-04-05T13:49:10.407Z,101225.80
2024-04-05T13:51:40.038Z,101222.73
2024-04-05T13:54:10.881Z,101227.98
2024-04-05T13:56:40.714Z,101228.77
2024-04-05T13:59:17.875Z,101227.64
2024-04-05T14:01:48.463Z,101226.55
2024-04-05T14:04:18.104Z,101224.52
2024-04-05T14:09:19.544Z,101225.69
2024-04-05T14:11:52.703Z,101229.73
2024-04-05T14:14:21.963Z,101228.75
2024-04-05T14:16:50.953Z,101229.45
2024-04-05T14:19:18.992Z,101231.23
2024-04-05T14:21:48.763Z,101235.56
2024-04-05T14:24:21.676Z,101237.98
2024-04-05T14:26:50.614Z,101235.69
2024-04-05T14:29:18.862Z,101239.27
2024-04-05T14:31:46.893Z,101238.80
2024-04-05T14:34:14.992Z,101241.12
2024-04-05T14:36:43.803Z,101247.91
2024-04-05T14:39:11.916Z,101248.40
2024-04-05T14:41:39.954Z,101249.09
2024-04-05T14:44:08.776Z,101247.99
2024-04-05T14:46:36.852Z,101252.31
2024-04-05T14:49:04.878Z,101252.84
2024-04-05T14:51:33.972Z,101254.45
2024-04-05T14:54:03.244Z,101253.59
2024-04-05T14:56:31.303Z,101258.75
2024-04-05T14:58:59.580Z,101258.39
2024-04-05T15:01:27.906Z,101259.39
2024-04-05T15:03:55.914Z,101258.65
2024-04-05T15:06:23.996Z,101262.98
2024-04-05T15:08:51.929Z,101261.22
2024-04-05T15:11:20.120Z,101264.39
2024-04-05T15:13:48.164Z,101266.95
2024-04-05T15:16:17.198Z,101267.58
2024-04-05T15:18:45.336Z,101268.89
2024-04-05T15:21:13.245Z,101273.36
2024-04-05T15:23:41.804Z,101277.41
2024-04-05T15:26:09.895Z,101282.98
2024-04-05T15:28:39.240Z,101281.71
2024-04-05T15:31:07.226Z,101291.55
2024-04-05T15:33:38.222Z,101297.52
2024-04-05T15:36:06.566Z,101310.04
2024-04-05T15:38:35.909Z,101315.49
2024-04-05T15:41:08.293Z,101316.38
2024-04-05T15:43:37.379Z,101320.46
2024-04-05T15:46:06.067Z,101323.24
2024-04-05T15:48:33.946Z,101329.95
2024-04-05T15:51:06.069Z,101338.88
2024-04-05T15:53:34.542Z,101349.30
2024-04-05T15:56:04.080Z,101357.53
2024-04-05T15:58:32.113Z,101361.47
2024-04-05T16:01:04.325Z,101373.55
2024-04-05T16:03:33.270Z,101380.38
2024-04-05T16:06:01.287Z,101369.10
2024-04-05T16:08:29.325Z,101359.05
2024-04-05T16:11:01.358Z,101357.16
2024-04-05T16:13:29.308Z,101370.05
2024-04-05T16:16:00.519Z,101372.10
2024-04-05T16:18:29.106Z,101368.82
2024-04-05T16:21:13.567Z,101362.02
2024-04-05T16:23:43.102Z,101353.89
2024-04-05T16:26:11.851Z,101332.52
2024-04-05T16:28:44.530Z,101329.80
2024-04-05T16:31:15.661Z,101338.58
2024-04-05T16:33:44.492Z,101333.27
2024-04-05T16:36:12.723Z,101338.23
2024-04-05T16:38:41.025Z,101338.23
2024-04-05T16:41:10.616Z,101340.15
2024-04-05T16:43:39.012Z,101338.38
2024-04-05T16:46:11.230Z,101340.37
2024-04-05T16:48:39.860Z,101345.36
2024-04-05T16:51:08.454Z,101352.04
2024-04-05T16:53:39.603Z,101359.40
2024-04-05T16:56:08.335Z,101358.45
2024-04-05T16:58:36.434Z,101355.59
2024-04-05T17:01:06.096Z,101358.80
2024-04-05T17:03:34.717Z,101357.48
2024-04-05T17:06:23.253Z,101364.90
2024-04-05T17:08:51.796Z,101368.65
2024-04-05T17:11:19.807Z,101374.06
2024-04-05T17:13:56.853Z,101376.67
2024-04-05T17:16:24.763Z,101377.14
2024-04-05T17:18:52.864Z,101376.66
2024-04-05T17:21:21.565Z,101378.91
2024-04-05T17:23:50.342Z,101382.14
2024-04-05T17:26:20.068Z,101387.05
2024-04-05T17:28:49.757Z,101388.77
2024-04-05T17:31:19.901Z,101393.09
2024-04-05T17:33:48.138Z,101397.27
2024-04-05T17:36:16.310Z,101403.22
2024-04-05T17:38:50.586Z,101402.56
2024-04-05T17:41:18.610Z,101398.66
2024-04-05T17:43:47.328Z,101405.57
2024-04-05T17:46:16.470Z,101408.15
2024-04-05T17:48:44.622Z,101405.48
2024-04-05T17:51:12.600Z,101403.18
2024-04-05T17:53:40.941Z,101402.80
2024-04-05T17:56:10.745Z,101401.94
2024-04-05T17:58:38.718Z,101403.58
2024-04-05T18:01:06.715Z,101406.52
2024-04-05T18:03:34.944Z,101409.55
2024-04-05T18:06:03.020Z,101413.20
2024-04-05T18:08:31.039Z,101409.70
2024-04-05T18:10:59.153Z,101416.18
2024-04-05T18:13:27.126Z,101419.33
2024-04-05T18:15:56.120Z,101420.11
2024-04-05T18:18:24.077Z,101423.02
2024-04-05T18:20:52.052Z,101424.59
2024-04-05T18:23:20.063Z,101426.21
2024-04-05T18:25:48.132Z,101427.77
2024-04-05T18:28:16.823Z,101431.08
2024-04-05T18:30:44.861Z,101429.25
2024-04-05T18:33:12.888Z,101430.58
2024-04-05T18:35:40.855Z,101432.64
2024-04-05T18:38:09.036Z,101432.87
2024-04-05T18:40:37.480Z,101433.56
2024-04-05T18:43:05.652Z,101438.23
2024-04-05T18:45:33.662Z,101438.27
2024-04-05T18:48:10.602Z,101431.89
2024-04-05T18:50:38.607Z,101431.35
2024-04-05T18:53:06.669Z,101431.84
2024-04-05T18:55:37.640Z,101429.48
2024-04-05T18:58:06.042Z,101430.67
2024-04-05T19:00:34.078Z,101435.29
2024-04-05T19:03:05.203Z,101438.52
2024-04-05T19:05:33.396Z,101442.05
2024-04-05T19:08:01.454Z,101441.57
2024-04-05T19:10:29.566Z,101444.02
2024-04-05T19:12:57.610Z,101441.66
2024-04-05T19:15:26.176Z,101447.73
2024-04-05T19:17:54.154Z,101447.62
2024-04-05T19:20:22.806Z,101448.83
2024-04-05T19:22:50.768Z,101450.30
2024-04-05T19:25:18.773Z,101454.71
2024-04-05T19:27:46.805Z,101457.50
2024-04-05T19:30:14.938Z,101453.39
2024-04-05T19:32:43.335Z,101451.13
2024-04-05T19:35:14.430Z,101451.14
2024-04-05T19:37:44.954Z,101454.81
2024-04-05T19:40:14.791Z,101459.80
2024-04-05T19:42:42.999Z,101462.34
2024-04-05T19:45:15.913Z,101458.04
2024-04-05T19:47:44.060Z,101458.52
2024-04-05T19:50:12.123Z,101459.17
2024-04-05T19:52:40.174Z,101463.95
2024-04-05T19:55:09.510Z,101466.36
2024-04-05T19:57:37.561Z,101469.88
2024-04-05T20:00:06.170Z,101468.42
2024-04-05T20:02:40.680Z,101462.84
2024-04-05T20:05:09.229Z,101459.89
2024-04-05T20:07:38.003Z,101460.81
2024-04-05T20:10:07.461Z,101458.58
2024-04-05T20:12:36.872Z,101457.77
2024-04-05T20:15:05.296Z,101459.95
2024-04-05T20:17:35.415Z,101465.72
2024-04-05T20:20:04.412Z,101467.40
2024-04-05T20:22:32.614Z,101472.85
2024-04-05T20:25:00.608Z,101467.83
2024-04-05T20:27:28.761Z,101476.02
2024-04-05T20:30:15.483Z,101475.04
2024-04-05T20:32:43.986Z,101469.09
2024-04-05T20:35:11.981Z,101467.56
2024-04-05T20:37:40.209Z,101466.23
2024-04-05T20:40:08.908Z,101468.05
2024-04-05T20:42:36.832Z,101464.44
2024-04-05T20:45:05.180Z,101462.48
2024-04-05T20:47:33.909Z,101462.31
2024-04-05T20:50:02.037Z,101461.20
2024-04-05T20:52:30.527Z,101461.57
2024-04-05T20:54:58.535Z,101461.10
2024-04-05T20:57:26.652Z,101463.02
2024-04-05T20:59:54.684Z,101467.16
2024-04-05T21:02:22.721Z,101469.68
2024-04-05T21:04:50.713Z,101471.05
2024-04-05T21:07:18.694Z,101473.02
2024-04-05T21:09:46.782Z,101471.14
2024-04-05T21:12:15.281Z,101473.22
2024-04-05T21:14:43.169Z,101470.18
2024-04-05T21:17:11.319Z,101472.65
2024-04-05T21:19:47.603Z,101473.89
2024-04-05T21:22:15.974Z,101478.33
2024-04-05T21:24:45.028Z,101480.52
2024-04-05T21:27:13.069Z,101482.67
2024-04-05T21:29:41.182Z,101481.41
2024-04-05T21:32:12.932Z,101480.95
2024-04-05T21:34:40.936Z,101482.89
2024-04-05T21:37:08.903Z,101487.45
2024-04-05T21:39:37.032Z,101489.27
2024-04-05T21:42:05.552Z,101491.89
2024-04-05T21:44:33.510Z,101492.27
2024-04-05T21:47:01.518Z,101492.57
2024-04-05T21:52:00.464Z,101487.98
2024-04-05T21:54:28.425Z,101488.73
2024-04-05T21:56:56.744Z,101490.26
2024-04-05T21:59:25.407Z,101493.88
2024-04-05T22:01:53.977Z,101499.20
2024-04-05T22:04:22.010Z,101495.92
2024-04-05T22:06:49.954Z,101498.98
2024-04-05T22:09:18.338Z,101499.23
2024-04-05T22:11:46.523Z,101501.92
2024-04-05T22:14:20.508Z,101505.55
2024-04-05T22:16:52.383Z,101503.34
2024-04-05T22:19:20.367Z,101506.14
2024-04-05T22:21:48.356Z,101510.34
2024-04-05T22:24:16.318Z,101507.79
2024-04-05T22:26:44.523Z,101509.36
2024-04-05T22:29:12.459Z,101510.89
2024-04-05T22:31:40.772Z,101507.08
2024-04-05T22:34:08.878Z,101505.56
2024-04-05T22:36:36.865Z,101501.73
2024-04-05T22:39:08.932Z,101498.10
2024-04-05T22:41:38.576Z,101500.46
2024-04-05T22:44:06.545Z,101503.11
2024-04-05T22:46:34.515Z,101504.04
2024-04-05T22:49:02.581Z,101504.83
2024-04-05T22:51:30.736Z,101506.81
2024-04-05T22:53:58.709Z,101505.94
2024-04-05T22:56:26.764Z,101505.27
2024-04-05T22:58:54.765Z,101506.13
2024-04-05T23:01:22.803Z,101505.52
2024-04-05T23:03:50.774Z,101500.59
2024-04-05T23:06:23.800Z,101502.11
2024-04-05T23:08:51.969Z,101501.88
2024-04-05T23:11:20.021Z,101499.23
2024-04-05T23:13:48.214Z,101492.13
2024-04-05T23:16:17.185Z,101486.89
2024-04-05T23:18:45.201Z,101486.31
2024-04-05T23:21:13.211Z,101485.08
2024-04-05T23:23:41.233Z,101485.20
2024-04-05T23:26:09.526Z,101487.91
2024-04-05T23:28:38.089Z,101486.41
2024-04-05T23:31:06.556Z,101485.81
2024-04-05T23:33:34.696Z,101481.32
2024-04-05T23:36:03.060Z,101480.30
2024-04-05T23:38:31.118Z,101477.37
2024-04-05T23:40:59.083Z,101474.20
2024-04-05T23:43:27.123Z,101469.59
2024-04-05T23:45:55.095Z,101471.39
2024-04-05T23:48:23.426Z,101471.19
2024-04-05T23:50:51.497Z,101469.91
2024-04-05T23:53:19.744Z,101468.43
2024-04-05T23:55:47.856Z,101464.20
2024-04-05T23:58:15.848Z,101460.49
